Green Ice — C6SO4 — position and weather

sailwx.info

Track history (hours):
 
Tides and Currents Weather Stations Pressure Air Temp Water Temp Dewpoint Dewpoint Depression Visibility Wind Speed Wind Dir Waves Ship Positions

Green Ice

Last reported at 2015-Mar-01 00:25 UTC. Time now 2015-Mar-01 12:34 UTC.
Position N 58°56' E 010°25'.

Length 86 m; draft 5.8 m.

MMSI: 311411000.

Date/timePositionNaut miles runAvg speedWind from/ knotsBaromVisibWave heightAir tempDewpointWater temp
2015-Mar-01 00:25N 58°56' E 010°25'5 5.5
2015-Feb-28 23:34N 58°59' E 010°33'5 5.4
2015-Feb-28 22:33N 59°01' E 010°43'8 7.7
2015-Feb-28 21:34N 59°01' E 010°58'8 8.4
2015-Feb-28 20:33N 59°10' E 010°57'2 1.7
2015-Feb-28 19:33N 59°11' E 010°57'0 0.0
2015-Feb-28 18:33N 59°11' E 010°57'0 0.0
2015-Feb-28 17:33N 59°11' E 010°57'0 0.0
2015-Feb-28 16:33N 59°11' E 010°57'0 0.0
2015-Feb-28 15:34N 59°11' E 010°57'0 0.0
2015-Feb-28 14:34N 59°11' E 010°57'0 0.0
2015-Feb-28 13:33N 59°11' E 010°57'0 0.0
2015-Feb-28 12:34N 59°11' E 010°57'0 0.0
2015-Feb-28 11:33N 59°11' E 010°57'0 0.0
2015-Feb-28 10:33N 59°11' E 010°57'0 0.0
2015-Feb-28 09:33N 59°11' E 010°57'0 0.0
2015-Feb-28 08:33N 59°11' E 010°57'0 0.0
2015-Feb-28 07:33N 59°11' E 010°57'0 0.0
2015-Feb-28 06:34N 59°11' E 010°57'9 8.8
2015-Feb-28 05:33N 59°03' E 010°58'1111.4
2015-Feb-28 04:33N 59°00' E 010°36'119 6.0
2015-Feb-27 08:33N 57°16' E 008°48'2114.6
2015-Feb-27 07:07N 57°01' E 008°19'1014.5
2015-Feb-27 06:26N 56°53' E 008°09'7313.6
2015-Feb-27 01:05N 55°45' E 007°24'1517.1
2015-Feb-27 00:13N 55°30' E 007°24'6 8.9
2015-Feb-26 23:33N 55°25' E 007°26'1413.8
2015-Feb-26 22:33N 55°11' E 007°31'1110.8
2015-Feb-26 21:33N 55°01' E 007°38'1413.9
2015-Feb-26 20:33N 54°48' E 007°45'1514.6
2015-Feb-26 19:33N 54°34' E 007°51'1414.5
2015-Feb-26 18:33N 54°20' E 007°57'1414.0
2015-Feb-26 17:33N 54°06' E 008°03'1111.0
2015-Feb-26 16:33N 54°00' E 008°19'1212.0
2015-Feb-26 15:33N 53°57' E 008°39'6 5.7
2015-Feb-26 14:33N 53°52' E 008°43'0 0.0
2015-Feb-26 13:33N 53°52' E 008°43'0 0.3
2015-Feb-26 12:33N 53°52' E 008°43'0 0.0
2015-Feb-26 11:33N 53°52' E 008°43'0 0.0
2015-Feb-26 10:33N 53°52' E 008°43'0 0.0
2015-Feb-26 09:33N 53°52' E 008°43'0 0.0
2015-Feb-26 08:33N 53°52' E 008°43'0 0.0
2015-Feb-26 07:33N 53°52' E 008°43'0 0.0
2015-Feb-26 06:33N 53°52' E 008°43'0 0.0
2015-Feb-26 05:33N 53°52' E 008°43'3 3.2
2015-Feb-26 04:34N 53°55' E 008°41'10 9.8
2015-Feb-26 03:33N 53°59' E 008°25'1010.2
2015-Feb-26 02:33N 53°59' E 008°08'1010.4
2015-Feb-26 01:33N 53°57' E 007°51'1110.9
2015-Feb-26 00:33N 53°54' E 007°33'1111.0
2015-Feb-25 23:33N 53°52' E 007°15'3310.0
2015-Feb-25 20:17N 53°41' E 006°23'9 7.6
2015-Feb-25 19:06N 53°36' E 006°36'712.1
2015-Feb-25 18:33N 53°32' E 006°44'6 5.6
2015-Feb-25 17:33N 53°27' E 006°49'0 0.0
2015-Feb-25 16:33N 53°27' E 006°49'0 0.0
2015-Feb-25 15:29N 53°27' E 006°49'0 0.0
2015-Feb-25 14:32N 53°27' E 006°49'0 0.0
2015-Feb-25 13:29N 53°27' E 006°49'0 0.0
2015-Feb-25 12:14N 53°27' E 006°49'0 0.0
2015-Feb-25 11:32N 53°27' E 006°49'0 0.0
2015-Feb-25 10:32N 53°27' E 006°49'0 0.0
2015-Feb-25 09:23N 53°27' E 006°49'0 0.0
2015-Feb-25 08:32N 53°27' E 006°49'0 0.0
2015-Feb-25 07:32N 53°27' E 006°49'16 2.6
2015-Feb-25 01:31N 53°37' E 006°29'267 8.6
2015-Feb-23 18:33N 58°02' E 005°30'8 7.7
2015-Feb-23 17:30N 58°10' E 005°29'29 6.9
2015-Feb-23 13:18N 58°39' E 005°26'8 8.1
2015-Feb-23 12:19N 58°47' E 005°25'7 9.2
2015-Feb-23 11:33N 58°53' E 005°31'1111.4
2015-Feb-23 10:33N 59°04' E 005°32'1010.1
2015-Feb-23 09:33N 59°12' E 005°20'1111.2
2015-Feb-23 08:33N 59°23' E 005°17'206 5.6
2015-Feb-21 19:24N 62°44' E 006°57'164 9.1
2015-Feb-21 01:29N 64°46' E 011°03'7 7.7
2015-Feb-21 00:33N 64°52' E 011°14'2 2.5
2015-Feb-20 23:34N 64°53' E 011°19'1110.9
2015-Feb-20 22:34N 65°01' E 011°36'8410.5
2015-Feb-20 14:33N 66°18' E 012°56'1111.0
2015-Feb-20 13:32N 66°29' E 012°59'3210.1
2015-Feb-20 10:22N 66°58' E 013°35'1111.2
2015-Feb-20 09:24N 67°05' E 013°56'1011.8
2015-Feb-20 08:33N 67°14' E 014°09'1211.7
2015-Feb-20 07:34N 67°24' E 014°26'1111.1
2015-Feb-20 06:33N 67°34' E 014°20'1010.3
2015-Feb-20 05:33N 67°45' E 014°19'146 6.0
2015-Feb-19 05:13N 69°33' E 018°45'811.7
2015-Feb-19 04:33N 69°39' E 018°59'0 0.4
2015-Feb-19 03:33N 69°39' E 018°58'0 0.0
2015-Feb-19 02:34N 69°39' E 018°58'0 0.0
2015-Feb-19 01:32N 69°39' E 018°58'0 0.0
2015-Feb-19 00:34N 69°39' E 018°58'  
Track history (hours):
 
Tides and Currents Weather Stations Pressure Air Temp Water Temp Dewpoint Dewpoint Depression Visibility Wind Speed Wind Dir Waves Ship Positions

Green Ice

Last reported at 2015-Mar-01 00:25 UTC. Time now 2015-Mar-01 12:34 UTC.
Position N 58°56' E 010°25'.

Length 86 m; draft 5.8 m.

MMSI: 311411000.

Date/timePositionNaut miles runAvg speedWind from/ knotsBaromVisibWave heightAir tempDewpointWater temp
2015-Mar-01 00:25N 58°56' E 010°25'5 5.5
2015-Feb-28 23:34N 58°59' E 010°33'5 5.4
2015-Feb-28 22:33N 59°01' E 010°43'8 7.7
2015-Feb-28 21:34N 59°01' E 010°58'8 8.4
2015-Feb-28 20:33N 59°10' E 010°57'2 1.7
2015-Feb-28 19:33N 59°11' E 010°57'0 0.0
2015-Feb-28 18:33N 59°11' E 010°57'0 0.0
2015-Feb-28 17:33N 59°11' E 010°57'0 0.0
2015-Feb-28 16:33N 59°11' E 010°57'0 0.0
2015-Feb-28 15:34N 59°11' E 010°57'0 0.0
2015-Feb-28 14:34N 59°11' E 010°57'0 0.0
2015-Feb-28 13:33N 59°11' E 010°57'0 0.0
2015-Feb-28 12:34N 59°11' E 010°57'0 0.0
2015-Feb-28 11:33N 59°11' E 010°57'0 0.0
2015-Feb-28 10:33N 59°11' E 010°57'0 0.0
2015-Feb-28 09:33N 59°11' E 010°57'0 0.0
2015-Feb-28 08:33N 59°11' E 010°57'0 0.0
2015-Feb-28 07:33N 59°11' E 010°57'0 0.0
2015-Feb-28 06:34N 59°11' E 010°57'9 8.8
2015-Feb-28 05:33N 59°03' E 010°58'1111.4
2015-Feb-28 04:33N 59°00' E 010°36'119 6.0
2015-Feb-27 08:33N 57°16' E 008°48'2114.6
2015-Feb-27 07:07N 57°01' E 008°19'1014.5
2015-Feb-27 06:26N 56°53' E 008°09'7313.6
2015-Feb-27 01:05N 55°45' E 007°24'1517.1
2015-Feb-27 00:13N 55°30' E 007°24'6 8.9
2015-Feb-26 23:33N 55°25' E 007°26'1413.8
2015-Feb-26 22:33N 55°11' E 007°31'1110.8
2015-Feb-26 21:33N 55°01' E 007°38'1413.9
2015-Feb-26 20:33N 54°48' E 007°45'1514.6
2015-Feb-26 19:33N 54°34' E 007°51'1414.5
2015-Feb-26 18:33N 54°20' E 007°57'1414.0
2015-Feb-26 17:33N 54°06' E 008°03'1111.0
2015-Feb-26 16:33N 54°00' E 008°19'1212.0
2015-Feb-26 15:33N 53°57' E 008°39'6 5.7
2015-Feb-26 14:33N 53°52' E 008°43'0 0.0
2015-Feb-26 13:33N 53°52' E 008°43'0 0.3
2015-Feb-26 12:33N 53°52' E 008°43'0 0.0
2015-Feb-26 11:33N 53°52' E 008°43'0 0.0
2015-Feb-26 10:33N 53°52' E 008°43'0 0.0
2015-Feb-26 09:33N 53°52' E 008°43'0 0.0
2015-Feb-26 08:33N 53°52' E 008°43'0 0.0
2015-Feb-26 07:33N 53°52' E 008°43'0 0.0
2015-Feb-26 06:33N 53°52' E 008°43'0 0.0
2015-Feb-26 05:33N 53°52' E 008°43'3 3.2
2015-Feb-26 04:34N 53°55' E 008°41'10 9.8
2015-Feb-26 03:33N 53°59' E 008°25'1010.2
2015-Feb-26 02:33N 53°59' E 008°08'1010.4
2015-Feb-26 01:33N 53°57' E 007°51'1110.9
2015-Feb-26 00:33N 53°54' E 007°33'1111.0
2015-Feb-25 23:33N 53°52' E 007°15'3310.0
2015-Feb-25 20:17N 53°41' E 006°23'9 7.6
2015-Feb-25 19:06N 53°36' E 006°36'712.1
2015-Feb-25 18:33N 53°32' E 006°44'6 5.6
2015-Feb-25 17:33N 53°27' E 006°49'0 0.0
2015-Feb-25 16:33N 53°27' E 006°49'0 0.0
2015-Feb-25 15:29N 53°27' E 006°49'0 0.0
2015-Feb-25 14:32N 53°27' E 006°49'0 0.0
2015-Feb-25 13:29N 53°27' E 006°49'0 0.0
2015-Feb-25 12:14N 53°27' E 006°49'0 0.0
2015-Feb-25 11:32N 53°27' E 006°49'0 0.0
2015-Feb-25 10:32N 53°27' E 006°49'0 0.0
2015-Feb-25 09:23N 53°27' E 006°49'0 0.0
2015-Feb-25 08:32N 53°27' E 006°49'0 0.0
2015-Feb-25 07:32N 53°27' E 006°49'16 2.6
2015-Feb-25 01:31N 53°37' E 006°29'267 8.6
2015-Feb-23 18:33N 58°02' E 005°30'8 7.7
2015-Feb-23 17:30N 58°10' E 005°29'29 6.9
2015-Feb-23 13:18N 58°39' E 005°26'8 8.1
2015-Feb-23 12:19N 58°47' E 005°25'7 9.2
2015-Feb-23 11:33N 58°53' E 005°31'1111.4
2015-Feb-23 10:33N 59°04' E 005°32'1010.1
2015-Feb-23 09:33N 59°12' E 005°20'1111.2
2015-Feb-23 08:33N 59°23' E 005°17'206 5.6
2015-Feb-21 19:24N 62°44' E 006°57'164 9.1
2015-Feb-21 01:29N 64°46' E 011°03'7 7.7
2015-Feb-21 00:33N 64°52' E 011°14'2 2.5
2015-Feb-20 23:34N 64°53' E 011°19'1110.9
2015-Feb-20 22:34N 65°01' E 011°36'8410.5
2015-Feb-20 14:33N 66°18' E 012°56'1111.0
2015-Feb-20 13:32N 66°29' E 012°59'3210.1
2015-Feb-20 10:22N 66°58' E 013°35'1111.2
2015-Feb-20 09:24N 67°05' E 013°56'1011.8
2015-Feb-20 08:33N 67°14' E 014°09'1211.7
2015-Feb-20 07:34N 67°24' E 014°26'1111.1
2015-Feb-20 06:33N 67°34' E 014°20'1010.3
2015-Feb-20 05:33N 67°45' E 014°19'146 6.0
2015-Feb-19 05:13N 69°33' E 018°45'811.7
2015-Feb-19 04:33N 69°39' E 018°59'0 0.4
2015-Feb-19 03:33N 69°39' E 018°58'0 0.0
2015-Feb-19 02:34N 69°39' E 018°58'0 0.0
2015-Feb-19 01:32N 69°39' E 018°58'0 0.0
2015-Feb-19 00:34N 69°39' E 018°58'  

Dump ship's entire track history